sensor_id;sensor_type;location;lat;lon;timestamp;P1;P2;P0
61760;PMS5003;47664;51.660;-0.100;2023-04-03T00:00:55;5;3;
61760;PMS5003;47664;51.660;-0.100;2023-04-03T00:03:22;3;3;
61760;PMS5003;47664;51.660;-0.100;2023-04-03T00:05:49;5;3;
61760;PMS5003;47664;51.660;-0.100;2023-04-03T00:08:16;5;3;
61760;PMS5003;47664;51.660;-0.100;2023-04-03T00:10:43;6;6;
61760;PMS5003;47664;51.660;-0.100;2023-04-03T00:13:10;4;2;
61760;PMS5003;47664;51.660;-0.100;2023-04-03T00:15:38;3;3;
61760;PMS5003;47664;51.660;-0.100;2023-04-03T00:18:06;4;1;
61760;PMS5003;47664;51.660;-0.100;2023-04-03T00:20:34;0;0;
61760;PMS5003;47664;51.660;-0.100;2023-04-03T00:23:02;3;3;
61760;PMS5003;47664;51.660;-0.100;2023-04-03T00:25:29;2;2;
61760;PMS5003;47664;51.660;-0.100;2023-04-03T00:27:56;5;2;
61760;PMS5003;47664;51.660;-0.100;2023-04-03T00:30:24;1;1;
61760;PMS5003;47664;51.660;-0.100;2023-04-03T00:32:52;7;6;
61760;PMS5003;47664;51.660;-0.100;2023-04-03T00:35:20;7;2;
61760;PMS5003;47664;51.660;-0.100;2023-04-03T00:37:51;4;4;
61760;PMS5003;47664;51.660;-0.100;2023-04-03T00:40:19;4;3;
61760;PMS5003;47664;51.660;-0.100;2023-04-03T00:42:49;5;2;
61760;PMS5003;47664;51.660;-0.100;2023-04-03T00:45:23;6;3;
61760;PMS5003;47664;51.660;-0.100;2023-04-03T00:47:56;4;3;
61760;PMS5003;47664;51.660;-0.100;2023-04-03T00:50:24;4;1;
61760;PMS5003;47664;51.660;-0.100;2023-04-03T00:52:51;6;3;
61760;PMS5003;47664;51.660;-0.100;2023-04-03T00:55:19;4;1;
61760;PMS5003;47664;51.660;-0.100;2023-04-03T00:57:47;6;5;
61760;PMS5003;47664;51.660;-0.100;2023-04-03T01:00:16;5;2;
61760;PMS5003;47664;51.660;-0.100;2023-04-03T01:02:46;5;2;
61760;PMS5003;47664;51.660;-0.100;2023-04-03T01:05:13;3;3;
61760;PMS5003;47664;51.660;-0.100;2023-04-03T01:07:43;1;1;
61760;PMS5003;47664;51.660;-0.100;2023-04-03T01:10:13;4;1;
61760;PMS5003;47664;51.660;-0.100;2023-04-03T01:12:43;2;1;
61760;PMS5003;47664;51.660;-0.100;2023-04-03T01:15:14;2;2;
61760;PMS5003;47664;51.660;-0.100;2023-04-03T01:17:44;2;2;
61760;PMS5003;47664;51.660;-0.100;2023-04-03T01:20:23;8;7;
61760;PMS5003;47664;51.660;-0.100;2023-04-03T01:23:16;3;2;
61760;PMS5003;47664;51.660;-0.100;2023-04-03T01:26:10;2;2;
61760;PMS5003;47664;51.660;-0.100;2023-04-03T01:28:38;5;3;
61760;PMS5003;47664;51.660;-0.100;2023-04-03T01:31:09;9;6;
61760;PMS5003;47664;51.660;-0.100;2023-04-03T01:33:43;2;2;
61760;PMS5003;47664;51.660;-0.100;2023-04-03T01:36:13;4;2;
61760;PMS5003;47664;51.660;-0.100;2023-04-03T01:38:41;3;2;
61760;PMS5003;47664;51.660;-0.100;2023-04-03T01:41:09;3;3;
61760;PMS5003;47664;51.660;-0.100;2023-04-03T01:43:36;3;3;
61760;PMS5003;47664;51.660;-0.100;2023-04-03T01:46:03;8;8;
61760;PMS5003;47664;51.660;-0.100;2023-04-03T01:48:31;2;1;
61760;PMS5003;47664;51.660;-0.100;2023-04-03T01:50:59;2;2;
61760;PMS5003;47664;51.660;-0.100;2023-04-03T01:53:26;3;2;
61760;PMS5003;47664;51.660;-0.100;2023-04-03T01:55:53;3;1;
61760;PMS5003;47664;51.660;-0.100;2023-04-03T01:58:20;3;2;
61760;PMS5003;47664;51.660;-0.100;2023-04-03T02:00:47;5;3;
61760;PMS5003;47664;51.660;-0.100;2023-04-03T02:03:14;2;1;
61760;PMS5003;47664;51.660;-0.100;2023-04-03T02:05:41;2;2;
61760;PMS5003;47664;51.660;-0.100;2023-04-03T02:08:08;3;3;
61760;PMS5003;47664;51.660;-0.100;2023-04-03T02:10:36;3;2;
61760;PMS5003;47664;51.660;-0.100;2023-04-03T02:13:04;8;2;
61760;PMS5003;47664;51.660;-0.100;2023-04-03T02:15:32;5;2;
61760;PMS5003;47664;51.660;-0.100;2023-04-03T02:17:59;2;2;
61760;PMS5003;47664;51.660;-0.100;2023-04-03T02:20:27;3;3;
61760;PMS5003;47664;51.660;-0.100;2023-04-03T02:22:53;4;4;
61760;PMS5003;47664;51.660;-0.100;2023-04-03T02:25:20;4;2;
61760;PMS5003;47664;51.660;-0.100;2023-04-03T02:27:48;8;6;
61760;PMS5003;47664;51.660;-0.100;2023-04-03T02:30:15;4;2;
61760;PMS5003;47664;51.660;-0.100;2023-04-03T02:32:43;6;3;
61760;PMS5003;47664;51.660;-0.100;2023-04-03T02:35:10;2;2;
61760;PMS5003;47664;51.660;-0.100;2023-04-03T02:37:38;4;2;
61760;PMS5003;47664;51.660;-0.100;2023-04-03T02:40:06;2;2;
61760;PMS5003;47664;51.660;-0.100;2023-04-03T02:42:34;2;2;
61760;PMS5003;47664;51.660;-0.100;2023-04-03T02:45:01;3;3;
61760;PMS5003;47664;51.660;-0.100;2023-04-03T02:47:29;2;1;
61760;PMS5003;47664;51.660;-0.100;2023-04-03T02:49:56;4;1;
61760;PMS5003;47664;51.660;-0.100;2023-04-03T02:52:23;4;1;
61760;PMS5003;47664;51.660;-0.100;2023-04-03T02:54:49;5;4;
61760;PMS5003;47664;51.660;-0.100;2023-04-03T02:57:16;4;4;
61760;PMS5003;47664;51.660;-0.100;2023-04-03T02:59:44;7;7;
61760;PMS5003;47664;51.660;-0.100;2023-04-03T03:02:11;2;2;
61760;PMS5003;47664;51.660;-0.100;2023-04-03T03:04:38;3;1;
61760;PMS5003;47664;51.660;-0.100;2023-04-03T03:07:05;3;3;
61760;PMS5003;47664;51.660;-0.100;2023-04-03T03:09:33;1;1;
61760;PMS5003;47664;51.660;-0.100;2023-04-03T03:12:00;4;3;
61760;PMS5003;47664;51.660;-0.100;2023-04-03T03:14:28;2;2;
61760;PMS5003;47664;51.660;-0.100;2023-04-03T03:16:55;4;2;
61760;PMS5003;47664;51.660;-0.100;2023-04-03T03:19:22;4;2;
61760;PMS5003;47664;51.660;-0.100;2023-04-03T03:21:49;2;2;
61760;PMS5003;47664;51.660;-0.100;2023-04-03T03:24:16;5;4;
61760;PMS5003;47664;51.660;-0.100;2023-04-03T03:26:43;2;2;
61760;PMS5003;47664;51.660;-0.100;2023-04-03T03:29:10;5;2;
61760;PMS5003;47664;51.660;-0.100;2023-04-03T03:31:37;3;2;
61760;PMS5003;47664;51.660;-0.100;2023-04-03T03:34:04;3;3;
61760;PMS5003;47664;51.660;-0.100;2023-04-03T03:36:31;3;1;
61760;PMS5003;47664;51.660;-0.100;2023-04-03T03:38:59;8;5;
61760;PMS5003;47664;51.660;-0.100;2023-04-03T03:41:26;3;3;
61760;PMS5003;47664;51.660;-0.100;2023-04-03T03:43:54;5;4;
61760;PMS5003;47664;51.660;-0.100;2023-04-03T03:46:21;4;2;
61760;PMS5003;47664;51.660;-0.100;2023-04-03T03:48:48;4;3;
61760;PMS5003;47664;51.660;-0.100;2023-04-03T03:51:15;5;3;
61760;PMS5003;47664;51.660;-0.100;2023-04-03T03:53:42;8;8;
61760;PMS5003;47664;51.660;-0.100;2023-04-03T03:56:10;1;1;
61760;PMS5003;47664;51.660;-0.100;2023-04-03T03:58:38;5;4;
61760;PMS5003;47664;51.660;-0.100;2023-04-03T04:01:05;1;1;
61760;PMS5003;47664;51.660;-0.100;2023-04-03T04:03:33;6;3;
61760;PMS5003;47664;51.660;-0.100;2023-04-03T04:06:00;4;2;
61760;PMS5003;47664;51.660;-0.100;2023-04-03T04:08:28;5;4;
61760;PMS5003;47664;51.660;-0.100;2023-04-03T04:10:55;6;3;
61760;PMS5003;47664;51.660;-0.100;2023-04-03T04:13:23;4;3;
61760;PMS5003;47664;51.660;-0.100;2023-04-03T04:15:50;4;3;
61760;PMS5003;47664;51.660;-0.100;2023-04-03T04:18:17;4;3;
61760;PMS5003;47664;51.660;-0.100;2023-04-03T04:20:44;6;5;
61760;PMS5003;47664;51.660;-0.100;2023-04-03T04:23:12;5;4;
61760;PMS5003;47664;51.660;-0.100;2023-04-03T04:25:39;4;3;
61760;PMS5003;47664;51.660;-0.100;2023-04-03T04:28:06;4;3;
61760;PMS5003;47664;51.660;-0.100;2023-04-03T04:30:33;5;4;
61760;PMS5003;47664;51.660;-0.100;2023-04-03T04:33:01;1;1;
61760;PMS5003;47664;51.660;-0.100;2023-04-03T04:35:28;6;3;
61760;PMS5003;47664;51.660;-0.100;2023-04-03T04:37:56;4;4;
61760;PMS5003;47664;51.660;-0.100;2023-04-03T04:40:23;5;4;
61760;PMS5003;47664;51.660;-0.100;2023-04-03T04:42:50;5;5;
61760;PMS5003;47664;51.660;-0.100;2023-04-03T04:45:17;5;3;
61760;PMS5003;47664;51.660;-0.100;2023-04-03T04:47:45;2;2;
61760;PMS5003;47664;51.660;-0.100;2023-04-03T04:50:12;3;3;
61760;PMS5003;47664;51.660;-0.100;2023-04-03T04:52:39;5;3;
61760;PMS5003;47664;51.660;-0.100;2023-04-03T04:55:07;5;2;
61760;PMS5003;47664;51.660;-0.100;2023-04-03T04:57:34;6;3;
61760;PMS5003;47664;51.660;-0.100;2023-04-03T05:00:02;4;3;
61760;PMS5003;47664;51.660;-0.100;2023-04-03T05:02:30;4;4;
61760;PMS5003;47664;51.660;-0.100;2023-04-03T05:05:03;4;3;
61760;PMS5003;47664;51.660;-0.100;2023-04-03T05:07:31;9;5;
61760;PMS5003;47664;51.660;-0.100;2023-04-03T05:09:59;7;5;
61760;PMS5003;47664;51.660;-0.100;2023-04-03T05:12:26;4;2;
61760;PMS5003;47664;51.660;-0.100;2023-04-03T05:14:53;7;5;
61760;PMS5003;47664;51.660;-0.100;2023-04-03T05:17:20;7;2;
61760;PMS5003;47664;51.660;-0.100;2023-04-03T05:19:47;3;2;
61760;PMS5003;47664;51.660;-0.100;2023-04-03T05:22:14;1;1;
61760;PMS5003;47664;51.660;-0.100;2023-04-03T05:24:42;11;6;
61760;PMS5003;47664;51.660;-0.100;2023-04-03T05:27:09;2;2;
61760;PMS5003;47664;51.660;-0.100;2023-04-03T05:29:36;5;3;
61760;PMS5003;47664;51.660;-0.100;2023-04-03T05:32:03;7;4;
61760;PMS5003;47664;51.660;-0.100;2023-04-03T05:34:31;5;4;
61760;PMS5003;47664;51.660;-0.100;2023-04-03T05:36:58;7;5;
61760;PMS5003;47664;51.660;-0.100;2023-04-03T05:39:26;5;5;
61760;PMS5003;47664;51.660;-0.100;2023-04-03T05:41:53;11;9;
61760;PMS5003;47664;51.660;-0.100;2023-04-03T05:44:21;5;4;
61760;PMS5003;47664;51.660;-0.100;2023-04-03T05:46:48;6;4;
61760;PMS5003;47664;51.660;-0.100;2023-04-03T05:49:15;6;2;
61760;PMS5003;47664;51.660;-0.100;2023-04-03T05:51:42;7;4;
61760;PMS5003;47664;51.660;-0.100;2023-04-03T05:54:11;5;5;
61760;PMS5003;47664;51.660;-0.100;2023-04-03T05:56:42;5;4;
61760;PMS5003;47664;51.660;-0.100;2023-04-03T05:59:09;4;2;
61760;PMS5003;47664;51.660;-0.100;2023-04-03T06:01:36;8;5;
61760;PMS5003;47664;51.660;-0.100;2023-04-03T06:04:03;6;5;
61760;PMS5003;47664;51.660;-0.100;2023-04-03T06:06:45;3;3;
61760;PMS5003;47664;51.660;-0.100;2023-04-03T06:09:14;7;5;
61760;PMS5003;47664;51.660;-0.100;2023-04-03T06:11:43;8;6;
61760;PMS5003;47664;51.660;-0.100;2023-04-03T06:14:10;5;5;
61760;PMS5003;47664;51.660;-0.100;2023-04-03T06:16:38;7;5;
61760;PMS5003;47664;51.660;-0.100;2023-04-03T06:19:06;3;3;
61760;PMS5003;47664;51.660;-0.100;2023-04-03T06:21:34;7;5;
61760;PMS5003;47664;51.660;-0.100;2023-04-03T06:24:02;6;2;
61760;PMS5003;47664;51.660;-0.100;2023-04-03T06:26:32;10;7;
61760;PMS5003;47664;51.660;-0.100;2023-04-03T06:29:00;9;5;
61760;PMS5003;47664;51.660;-0.100;2023-04-03T06:31:27;8;6;
61760;PMS5003;47664;51.660;-0.100;2023-04-03T06:33:54;5;5;
61760;PMS5003;47664;51.660;-0.100;2023-04-03T06:36:22;6;4;
61760;PMS5003;47664;51.660;-0.100;2023-04-03T06:38:49;5;4;
61760;PMS5003;47664;51.660;-0.100;2023-04-03T06:41:17;6;3;
61760;PMS5003;47664;51.660;-0.100;2023-04-03T06:43:44;5;4;
61760;PMS5003;47664;51.660;-0.100;2023-04-03T06:46:13;4;4;
61760;PMS5003;47664;51.660;-0.100;2023-04-03T06:48:41;6;4;
61760;PMS5003;47664;51.660;-0.100;2023-04-03T06:51:11;8;5;
61760;PMS5003;47664;51.660;-0.100;2023-04-03T06:53:44;10;6;
61760;PMS5003;47664;51.660;-0.100;2023-04-03T06:56:11;6;3;
61760;PMS5003;47664;51.660;-0.100;2023-04-03T06:58:38;4;4;
61760;PMS5003;47664;51.660;-0.100;2023-04-03T07:01:05;3;3;
61760;PMS5003;47664;51.660;-0.100;2023-04-03T07:03:33;3;3;
61760;PMS5003;47664;51.660;-0.100;2023-04-03T07:06:00;7;4;
61760;PMS5003;47664;51.660;-0.100;2023-04-03T07:08:27;6;6;
61760;PMS5003;47664;51.660;-0.100;2023-04-03T07:10:55;8;8;
61760;PMS5003;47664;51.660;-0.100;2023-04-03T07:13:22;7;6;
61760;PMS5003;47664;51.660;-0.100;2023-04-03T07:15:49;6;4;
61760;PMS5003;47664;51.660;-0.100;2023-04-03T07:18:17;4;4;
61760;PMS5003;47664;51.660;-0.100;2023-04-03T07:20:44;16;12;
61760;PMS5003;47664;51.660;-0.100;2023-04-03T07:23:11;8;6;
61760;PMS5003;47664;51.660;-0.100;2023-04-03T07:25:42;11;9;
61760;PMS5003;47664;51.660;-0.100;2023-04-03T07:28:09;6;4;
61760;PMS5003;47664;51.660;-0.100;2023-04-03T07:30:42;7;7;
61760;PMS5003;47664;51.660;-0.100;2023-04-03T07:33:10;7;6;
61760;PMS5003;47664;51.660;-0.100;2023-04-03T07:35:38;5;5;
61760;PMS5003;47664;51.660;-0.100;2023-04-03T07:38:06;10;9;
61760;PMS5003;47664;51.660;-0.100;2023-04-03T07:40:33;4;4;
61760;PMS5003;47664;51.660;-0.100;2023-04-03T07:43:02;10;8;
61760;PMS5003;47664;51.660;-0.100;2023-04-03T07:45:30;7;6;
61760;PMS5003;47664;51.660;-0.100;2023-04-03T07:47:58;8;5;
61760;PMS5003;47664;51.660;-0.100;2023-04-03T07:50:27;11;8;
61760;PMS5003;47664;51.660;-0.100;2023-04-03T07:52:54;9;7;
61760;PMS5003;47664;51.660;-0.100;2023-04-03T07:55:21;10;10;
61760;PMS5003;47664;51.660;-0.100;2023-04-03T07:57:48;6;6;
61760;PMS5003;47664;51.660;-0.100;2023-04-03T08:00:15;12;10;
61760;PMS5003;47664;51.660;-0.100;2023-04-03T08:02:43;8;8;
61760;PMS5003;47664;51.660;-0.100;2023-04-03T08:05:10;10;8;
61760;PMS5003;47664;51.660;-0.100;2023-04-03T08:07:37;11;11;
61760;PMS5003;47664;51.660;-0.100;2023-04-03T08:10:05;6;6;
61760;PMS5003;47664;51.660;-0.100;2023-04-03T08:12:33;12;9;
61760;PMS5003;47664;51.660;-0.100;2023-04-03T08:15:00;7;6;
61760;PMS5003;47664;51.660;-0.100;2023-04-03T08:17:28;14;8;
61760;PMS5003;47664;51.660;-0.100;2023-04-03T08:19:55;9;8;
61760;PMS5003;47664;51.660;-0.100;2023-04-03T08:22:22;9;6;
61760;PMS5003;47664;51.660;-0.100;2023-04-03T08:24:49;10;7;
61760;PMS5003;47664;51.660;-0.100;2023-04-03T08:27:16;8;6;
61760;PMS5003;47664;51.660;-0.100;2023-04-03T08:29:43;6;5;
61760;PMS5003;47664;51.660;-0.100;2023-04-03T08:32:11;9;8;
61760;PMS5003;47664;51.660;-0.100;2023-04-03T08:34:38;7;4;
61760;PMS5003;47664;51.660;-0.100;2023-04-03T08:37:05;5;5;
61760;PMS5003;47664;51.660;-0.100;2023-04-03T08:39:32;6;6;
61760;PMS5003;47664;51.660;-0.100;2023-04-03T08:42:00;4;4;
61760;PMS5003;47664;51.660;-0.100;2023-04-03T08:44:39;11;10;
61760;PMS5003;47664;51.660;-0.100;2023-04-03T08:47:13;5;5;
61760;PMS5003;47664;51.660;-0.100;2023-04-03T08:49:51;7;6;
61760;PMS5003;47664;51.660;-0.100;2023-04-03T08:52:20;11;6;
61760;PMS5003;47664;51.660;-0.100;2023-04-03T08:54:54;7;6;
61760;PMS5003;47664;51.660;-0.100;2023-04-03T08:57:26;8;6;
61760;PMS5003;47664;51.660;-0.100;2023-04-03T08:59:57;7;7;
61760;PMS5003;47664;51.660;-0.100;2023-04-03T09:02:31;9;7;
61760;PMS5003;47664;51.660;-0.100;2023-04-03T09:05:02;11;10;
61760;PMS5003;47664;51.660;-0.100;2023-04-03T09:07:38;14;8;
61760;PMS5003;47664;51.660;-0.100;2023-04-03T09:10:10;6;6;
61760;PMS5003;47664;51.660;-0.100;2023-04-03T09:12:41;14;13;
61760;PMS5003;47664;51.660;-0.100;2023-04-03T09:15:16;19;12;
61760;PMS5003;47664;51.660;-0.100;2023-04-03T09:17:48;5;5;
61760;PMS5003;47664;51.660;-0.100;2023-04-03T09:20:25;12;11;
61760;PMS5003;47664;51.660;-0.100;2023-04-03T09:23:00;10;9;
61760;PMS5003;47664;51.660;-0.100;2023-04-03T09:25:31;10;10;
61760;PMS5003;47664;51.660;-0.100;2023-04-03T09:28:00;16;12;
61760;PMS5003;47664;51.660;-0.100;2023-04-03T09:30:29;10;9;
61760;PMS5003;47664;51.660;-0.100;2023-04-03T09:32:57;9;6;
61760;PMS5003;47664;51.660;-0.100;2023-04-03T09:35:26;10;10;
61760;PMS5003;47664;51.660;-0.100;2023-04-03T09:38:00;12;12;
61760;PMS5003;47664;51.660;-0.100;2023-04-03T09:40:40;11;10;
61760;PMS5003;47664;51.660;-0.100;2023-04-03T09:43:26;12;12;
61760;PMS5003;47664;51.660;-0.100;2023-04-03T09:45:56;12;11;
61760;PMS5003;47664;51.660;-0.100;2023-04-03T09:48:49;14;11;
61760;PMS5003;47664;51.660;-0.100;2023-04-03T09:51:17;13;12;
61760;PMS5003;47664;51.660;-0.100;2023-04-03T09:53:44;13;11;
61760;PMS5003;47664;51.660;-0.100;2023-04-03T09:56:20;11;9;
61760;PMS5003;47664;51.660;-0.100;2023-04-03T09:58:51;11;11;
61760;PMS5003;47664;51.660;-0.100;2023-04-03T10:01:36;12;8;
61760;PMS5003;47664;51.660;-0.100;2023-04-03T10:04:06;10;8;
61760;PMS5003;47664;51.660;-0.100;2023-04-03T10:06:38;13;10;
61760;PMS5003;47664;51.660;-0.100;2023-04-03T10:09:14;7;7;
61760;PMS5003;47664;51.660;-0.100;2023-04-03T10:11:57;12;11;
61760;PMS5003;47664;51.660;-0.100;2023-04-03T10:14:26;11;8;
61760;PMS5003;47664;51.660;-0.100;2023-04-03T10:16:56;7;6;
61760;PMS5003;47664;51.660;-0.100;2023-04-03T10:19:36;11;6;
61760;PMS5003;47664;51.660;-0.100;2023-04-03T10:22:12;8;6;
61760;PMS5003;47664;51.660;-0.100;2023-04-03T10:24:48;12;10;
61760;PMS5003;47664;51.660;-0.100;2023-04-03T10:27:26;10;9;
61760;PMS5003;47664;51.660;-0.100;2023-04-03T10:30:06;7;7;
61760;PMS5003;47664;51.660;-0.100;2023-04-03T10:32:50;11;8;
61760;PMS5003;47664;51.660;-0.100;2023-04-03T10:35:27;6;6;
61760;PMS5003;47664;51.660;-0.100;2023-04-03T10:38:08;11;8;
61760;PMS5003;47664;51.660;-0.100;2023-04-03T10:40:45;10;10;
61760;PMS5003;47664;51.660;-0.100;2023-04-03T10:43:21;9;6;
61760;PMS5003;47664;51.660;-0.100;2023-04-03T10:45:59;11;10;
61760;PMS5003;47664;51.660;-0.100;2023-04-03T10:48:34;11;9;
61760;PMS5003;47664;51.660;-0.100;2023-04-03T10:51:16;9;7;
61760;PMS5003;47664;51.660;-0.100;2023-04-03T10:53:52;12;10;
61760;PMS5003;47664;51.660;-0.100;2023-04-03T10:56:30;9;9;
61760;PMS5003;47664;51.660;-0.100;2023-04-03T10:59:07;8;8;
61760;PMS5003;47664;51.660;-0.100;2023-04-03T11:01:44;9;9;
61760;PMS5003;47664;51.660;-0.100;2023-04-03T11:04:15;9;8;
61760;PMS5003;47664;51.660;-0.100;2023-04-03T11:06:45;11;8;
61760;PMS5003;47664;51.660;-0.100;2023-04-03T11:09:19;10;7;
61760;PMS5003;47664;51.660;-0.100;2023-04-03T11:11:53;10;8;
61760;PMS5003;47664;51.660;-0.100;2023-04-03T11:14:27;12;10;
61760;PMS5003;47664;51.660;-0.100;2023-04-03T11:17:01;11;10;
61760;PMS5003;47664;51.660;-0.100;2023-04-03T11:19:36;9;9;
61760;PMS5003;47664;51.660;-0.100;2023-04-03T11:22:09;14;11;
61760;PMS5003;47664;51.660;-0.100;2023-04-03T11:24:42;11;10;
61760;PMS5003;47664;51.660;-0.100;2023-04-03T11:27:22;11;10;
61760;PMS5003;47664;51.660;-0.100;2023-04-03T11:29:51;8;8;
61760;PMS5003;47664;51.660;-0.100;2023-04-03T11:32:27;12;12;
61760;PMS5003;47664;51.660;-0.100;2023-04-03T11:35:05;8;8;
61760;PMS5003;47664;51.660;-0.100;2023-04-03T11:37:35;11;10;
61760;PMS5003;47664;51.660;-0.100;2023-04-03T11:40:08;13;10;
61760;PMS5003;47664;51.660;-0.100;2023-04-03T11:42:48;9;9;
61760;PMS5003;47664;51.660;-0.100;2023-04-03T11:45:25;7;6;
61760;PMS5003;47664;51.660;-0.100;2023-04-03T11:47:59;10;10;
61760;PMS5003;47664;51.660;-0.100;2023-04-03T11:50:37;9;9;
61760;PMS5003;47664;51.660;-0.100;2023-04-03T11:53:40;11;9;
61760;PMS5003;47664;51.660;-0.100;2023-04-03T11:56:39;15;13;
61760;PMS5003;47664;51.660;-0.100;2023-04-03T11:59:23;12;10;
61760;PMS5003;47664;51.660;-0.100;2023-04-03T12:01:51;13;10;
61760;PMS5003;47664;51.660;-0.100;2023-04-03T12:04:19;16;10;
61760;PMS5003;47664;51.660;-0.100;2023-04-03T12:06:52;10;10;
61760;PMS5003;47664;51.660;-0.100;2023-04-03T12:09:26;14;10;
61760;PMS5003;47664;51.660;-0.100;2023-04-03T12:11:59;14;10;
61760;PMS5003;47664;51.660;-0.100;2023-04-03T12:14:47;9;9;
61760;PMS5003;47664;51.660;-0.100;2023-04-03T12:17:19;13;9;
61760;PMS5003;47664;51.660;-0.100;2023-04-03T12:19:50;11;11;
61760;PMS5003;47664;51.660;-0.100;2023-04-03T12:22:17;11;9;
61760;PMS5003;47664;51.660;-0.100;2023-04-03T12:24:45;11;9;
61760;PMS5003;47664;51.660;-0.100;2023-04-03T12:27:21;12;9;
61760;PMS5003;47664;51.660;-0.100;2023-04-03T12:29:55;10;9;
61760;PMS5003;47664;51.660;-0.100;2023-04-03T12:32:34;7;7;
61760;PMS5003;47664;51.660;-0.100;2023-04-03T12:35:18;9;9;
61760;PMS5003;47664;51.660;-0.100;2023-04-03T12:37:57;8;6;
61760;PMS5003;47664;51.660;-0.100;2023-04-03T12:40:52;12;10;
61760;PMS5003;47664;51.660;-0.100;2023-04-03T12:43:35;13;8;
61760;PMS5003;47664;51.660;-0.100;2023-04-03T12:46:11;9;9;
61760;PMS5003;47664;51.660;-0.100;2023-04-03T12:48:47;12;8;
61760;PMS5003;47664;51.660;-0.100;2023-04-03T12:51:17;10;9;
61760;PMS5003;47664;51.660;-0.100;2023-04-03T12:53:48;8;7;
61760;PMS5003;47664;51.660;-0.100;2023-04-03T12:56:19;10;8;
61760;PMS5003;47664;51.660;-0.100;2023-04-03T12:58:49;7;7;
61760;PMS5003;47664;51.660;-0.100;2023-04-03T13:01:18;7;7;
61760;PMS5003;47664;51.660;-0.100;2023-04-03T13:03:49;8;8;
61760;PMS5003;47664;51.660;-0.100;2023-04-03T13:06:19;8;8;
61760;PMS5003;47664;51.660;-0.100;2023-04-03T13:08:48;8;8;
61760;PMS5003;47664;51.660;-0.100;2023-04-03T13:11:16;7;7;
61760;PMS5003;47664;51.660;-0.100;2023-04-03T13:13:54;12;11;
61760;PMS5003;47664;51.660;-0.100;2023-04-03T13:16:22;9;6;
61760;PMS5003;47664;51.660;-0.100;2023-04-03T13:18:50;8;7;
61760;PMS5003;47664;51.660;-0.100;2023-04-03T13:21:19;7;7;
61760;PMS5003;47664;51.660;-0.100;2023-04-03T13:23:49;9;8;
61760;PMS5003;47664;51.660;-0.100;2023-04-03T13:26:20;6;6;
61760;PMS5003;47664;51.660;-0.100;2023-04-03T13:28:50;10;7;
61760;PMS5003;47664;51.660;-0.100;2023-04-03T13:31:18;10;8;
61760;PMS5003;47664;51.660;-0.100;2023-04-03T13:33:52;7;7;
61760;PMS5003;47664;51.660;-0.100;2023-04-03T13:36:23;11;8;
61760;PMS5003;47664;51.660;-0.100;2023-04-03T13:39:03;7;7;
61760;PMS5003;47664;51.660;-0.100;2023-04-03T13:41:34;8;6;
61760;PMS5003;47664;51.660;-0.100;2023-04-03T13:44:24;6;6;
61760;PMS5003;47664;51.660;-0.100;2023-04-03T13:46:55;8;7;
61760;PMS5003;47664;51.660;-0.100;2023-04-03T13:49:28;8;6;
61760;PMS5003;47664;51.660;-0.100;2023-04-03T13:51:58;10;8;
61760;PMS5003;47664;51.660;-0.100;2023-04-03T13:54:29;8;6;
61760;PMS5003;47664;51.660;-0.100;2023-04-03T13:56:59;9;7;
61760;PMS5003;47664;51.660;-0.100;2023-04-03T13:59:29;6;5;
61760;PMS5003;47664;51.660;-0.100;2023-04-03T14:02:12;7;7;
61760;PMS5003;47664;51.660;-0.100;2023-04-03T14:04:45;7;7;
61760;PMS5003;47664;51.660;-0.100;2023-04-03T14:07:17;9;9;
61760;PMS5003;47664;51.660;-0.100;2023-04-03T14:09:44;7;7;
61760;PMS5003;47664;51.660;-0.100;2023-04-03T14:12:13;6;6;
61760;PMS5003;47664;51.660;-0.100;2023-04-03T14:14:44;8;7;
61760;PMS5003;47664;51.660;-0.100;2023-04-03T14:17:14;9;8;
61760;PMS5003;47664;51.660;-0.100;2023-04-03T14:19:44;6;6;
61760;PMS5003;47664;51.660;-0.100;2023-04-03T14:22:15;7;6;
61760;PMS5003;47664;51.660;-0.100;2023-04-03T14:24:44;9;6;
61760;PMS5003;47664;51.660;-0.100;2023-04-03T14:27:15;5;5;
61760;PMS5003;47664;51.660;-0.100;2023-04-03T14:29:45;9;8;
61760;PMS5003;47664;51.660;-0.100;2023-04-03T14:32:19;5;5;
61760;PMS5003;47664;51.660;-0.100;2023-04-03T14:34:48;10;6;
61760;PMS5003;47664;51.660;-0.100;2023-04-03T14:37:19;8;7;
61760;PMS5003;47664;51.660;-0.100;2023-04-03T14:39:50;7;7;
61760;PMS5003;47664;51.660;-0.100;2023-04-03T14:42:19;8;6;
61760;PMS5003;47664;51.660;-0.100;2023-04-03T14:44:49;6;6;
61760;PMS5003;47664;51.660;-0.100;2023-04-03T14:47:18;7;7;
61760;PMS5003;47664;51.660;-0.100;2023-04-03T14:49:48;9;7;
61760;PMS5003;47664;51.660;-0.100;2023-04-03T14:52:17;10;10;
61760;PMS5003;47664;51.660;-0.100;2023-04-03T14:54:49;10;7;
61760;PMS5003;47664;51.660;-0.100;2023-04-03T14:57:17;8;8;
61760;PMS5003;47664;51.660;-0.100;2023-04-03T14:59:45;9;7;
61760;PMS5003;47664;51.660;-0.100;2023-04-03T15:02:22;8;7;
61760;PMS5003;47664;51.660;-0.100;2023-04-03T15:04:53;9;7;
61760;PMS5003;47664;51.660;-0.100;2023-04-03T15:07:21;8;8;
61760;PMS5003;47664;51.660;-0.100;2023-04-03T15:09:50;10;8;
61760;PMS5003;47664;51.660;-0.100;2023-04-03T15:12:18;9;9;
61760;PMS5003;47664;51.660;-0.100;2023-04-03T15:14:45;9;8;
61760;PMS5003;47664;51.660;-0.100;2023-04-03T15:17:14;7;7;
61760;PMS5003;47664;51.660;-0.100;2023-04-03T15:19:43;10;8;
61760;PMS5003;47664;51.660;-0.100;2023-04-03T15:22:12;10;10;
61760;PMS5003;47664;51.660;-0.100;2023-04-03T15:24:40;12;8;
61760;PMS5003;47664;51.660;-0.100;2023-04-03T15:27:07;10;9;
61760;PMS5003;47664;51.660;-0.100;2023-04-03T15:29:35;11;8;
61760;PMS5003;47664;51.660;-0.100;2023-04-03T15:32:04;7;7;
61760;PMS5003;47664;51.660;-0.100;2023-04-03T15:34:31;7;7;
61760;PMS5003;47664;51.660;-0.100;2023-04-03T15:36:59;11;8;
61760;PMS5003;47664;51.660;-0.100;2023-04-03T15:39:26;13;7;
61760;PMS5003;47664;51.660;-0.100;2023-04-03T15:41:54;10;5;
61760;PMS5003;47664;51.660;-0.100;2023-04-03T15:44:21;7;6;
61760;PMS5003;47664;51.660;-0.100;2023-04-03T15:46:48;7;7;
61760;PMS5003;47664;51.660;-0.100;2023-04-03T15:49:16;5;3;
61760;PMS5003;47664;51.660;-0.100;2023-04-03T15:51:45;3;3;
61760;PMS5003;47664;51.660;-0.100;2023-04-03T15:54:12;6;6;
61760;PMS5003;47664;51.660;-0.100;2023-04-03T15:56:39;6;5;
61760;PMS5003;47664;51.660;-0.100;2023-04-03T15:59:06;4;3;
61760;PMS5003;47664;51.660;-0.100;2023-04-03T16:01:33;4;4;
61760;PMS5003;47664;51.660;-0.100;2023-04-03T16:04:00;3;3;
61760;PMS5003;47664;51.660;-0.100;2023-04-03T16:06:28;5;4;
61760;PMS5003;47664;51.660;-0.100;2023-04-03T16:08:55;7;4;
61760;PMS5003;47664;51.660;-0.100;2023-04-03T16:11:23;4;4;
61760;PMS5003;47664;51.660;-0.100;2023-04-03T16:13:51;6;6;
61760;PMS5003;47664;51.660;-0.100;2023-04-03T16:16:18;4;3;
61760;PMS5003;47664;51.660;-0.100;2023-04-03T16:18:45;4;4;
61760;PMS5003;47664;51.660;-0.100;2023-04-03T16:21:13;3;3;
61760;PMS5003;47664;51.660;-0.100;2023-04-03T16:23:41;4;4;
61760;PMS5003;47664;51.660;-0.100;2023-04-03T16:26:10;9;9;
61760;PMS5003;47664;51.660;-0.100;2023-04-03T16:28:38;10;6;
61760;PMS5003;47664;51.660;-0.100;2023-04-03T16:31:05;8;4;
61760;PMS5003;47664;51.660;-0.100;2023-04-03T16:33:33;7;6;
61760;PMS5003;47664;51.660;-0.100;2023-04-03T16:36:00;6;3;
61760;PMS5003;47664;51.660;-0.100;2023-04-03T16:38:28;10;4;
61760;PMS5003;47664;51.660;-0.100;2023-04-03T16:40:55;8;3;
61760;PMS5003;47664;51.660;-0.100;2023-04-03T16:43:22;4;4;
61760;PMS5003;47664;51.660;-0.100;2023-04-03T16:45:49;3;3;
61760;PMS5003;47664;51.660;-0.100;2023-04-03T16:48:16;3;3;